sensor_id;sensor_type;location;lat;lon;timestamp;P1;durP1;ratioP1;P2;durP2;ratioP2
43578;SDS011;29174;44.640;10.896;2024-03-07T00:00:10;8.52;;;5.47;;
43578;SDS011;29174;44.640;10.896;2024-03-07T00:02:44;9.38;;;6.30;;
43578;SDS011;29174;44.640;10.896;2024-03-07T00:05:11;7.63;;;5.68;;
43578;SDS011;29174;44.640;10.896;2024-03-07T00:07:39;8.63;;;4.97;;
43578;SDS011;29174;44.640;10.896;2024-03-07T00:10:06;7.63;;;5.63;;
43578;SDS011;29174;44.640;10.896;2024-03-07T00:12:36;10.27;;;5.38;;
43578;SDS011;29174;44.640;10.896;2024-03-07T00:15:04;6.25;;;4.70;;
43578;SDS011;29174;44.640;10.896;2024-03-07T00:17:30;7.60;;;4.82;;
43578;SDS011;29174;44.640;10.896;2024-03-07T00:19:56;8.63;;;6.10;;
43578;SDS011;29174;44.640;10.896;2024-03-07T00:22:22;8.15;;;5.47;;
43578;SDS011;29174;44.640;10.896;2024-03-07T00:24:51;5.55;;;4.40;;
43578;SDS011;29174;44.640;10.896;2024-03-07T00:27:20;11.80;;;6.05;;
43578;SDS011;29174;44.640;10.896;2024-03-07T00:29:47;8.25;;;4.88;;
43578;SDS011;29174;44.640;10.896;2024-03-07T00:32:18;8.98;;;5.20;;
43578;SDS011;29174;44.640;10.896;2024-03-07T00:37:10;7.97;;;5.73;;
43578;SDS011;29174;44.640;10.896;2024-03-07T00:39:36;8.35;;;5.63;;
43578;SDS011;29174;44.640;10.896;2024-03-07T00:42:02;7.82;;;5.30;;
43578;SDS011;29174;44.640;10.896;2024-03-07T00:44:27;6.90;;;5.05;;
43578;SDS011;29174;44.640;10.896;2024-03-07T00:46:53;8.00;;;5.80;;
43578;SDS011;29174;44.640;10.896;2024-03-07T00:49:19;8.98;;;5.88;;
43578;SDS011;29174;44.640;10.896;2024-03-07T00:51:45;6.63;;;4.68;;
43578;SDS011;29174;44.640;10.896;2024-03-07T00:54:11;8.00;;;5.30;;
43578;SDS011;29174;44.640;10.896;2024-03-07T00:56:38;8.48;;;5.28;;
43578;SDS011;29174;44.640;10.896;2024-03-07T00:59:04;7.63;;;5.43;;
43578;SDS011;29174;44.640;10.896;2024-03-07T01:01:30;7.07;;;4.80;;
43578;SDS011;29174;44.640;10.896;2024-03-07T01:03:58;8.75;;;5.47;;
43578;SDS011;29174;44.640;10.896;2024-03-07T01:06:25;8.02;;;5.47;;
43578;SDS011;29174;44.640;10.896;2024-03-07T01:08:51;8.05;;;5.60;;
43578;SDS011;29174;44.640;10.896;2024-03-07T01:11:17;11.30;;;5.68;;
43578;SDS011;29174;44.640;10.896;2024-03-07T01:13:43;7.43;;;5.63;;
43578;SDS011;29174;44.640;10.896;2024-03-07T01:16:09;9.50;;;6.47;;
43578;SDS011;29174;44.640;10.896;2024-03-07T01:18:35;7.72;;;5.20;;
43578;SDS011;29174;44.640;10.896;2024-03-07T01:21:01;10.38;;;5.55;;
43578;SDS011;29174;44.640;10.896;2024-03-07T01:23:27;7.55;;;5.50;;
43578;SDS011;29174;44.640;10.896;2024-03-07T01:25:55;9.23;;;5.93;;
43578;SDS011;29174;44.640;10.896;2024-03-07T01:28:26;6.30;;;5.22;;
43578;SDS011;29174;44.640;10.896;2024-03-07T01:30:56;7.60;;;5.43;;
43578;SDS011;29174;44.640;10.896;2024-03-07T01:33:23;6.78;;;5.72;;
43578;SDS011;29174;44.640;10.896;2024-03-07T01:35:48;6.13;;;5.25;;
43578;SDS011;29174;44.640;10.896;2024-03-07T01:38:14;8.40;;;4.82;;
43578;SDS011;29174;44.640;10.896;2024-03-07T01:40:41;8.40;;;5.35;;
43578;SDS011;29174;44.640;10.896;2024-03-07T01:43:08;7.47;;;5.47;;
43578;SDS011;29174;44.640;10.896;2024-03-07T01:45:35;5.70;;;4.78;;
43578;SDS011;29174;44.640;10.896;2024-03-07T01:48:03;6.28;;;4.28;;
43578;SDS011;29174;44.640;10.896;2024-03-07T01:50:29;8.32;;;5.30;;
43578;SDS011;29174;44.640;10.896;2024-03-07T01:52:55;7.95;;;5.25;;
43578;SDS011;29174;44.640;10.896;2024-03-07T01:55:22;7.23;;;5.20;;
43578;SDS011;29174;44.640;10.896;2024-03-07T01:57:50;8.63;;;4.85;;
43578;SDS011;29174;44.640;10.896;2024-03-07T02:00:16;8.07;;;5.13;;
43578;SDS011;29174;44.640;10.896;2024-03-07T02:02:43;6.70;;;5.07;;
43578;SDS011;29174;44.640;10.896;2024-03-07T02:05:10;7.13;;;5.10;;
43578;SDS011;29174;44.640;10.896;2024-03-07T02:07:36;8.27;;;5.07;;
43578;SDS011;29174;44.640;10.896;2024-03-07T02:10:05;8.55;;;5.30;;
43578;SDS011;29174;44.640;10.896;2024-03-07T02:12:31;7.88;;;5.40;;
43578;SDS011;29174;44.640;10.896;2024-03-07T02:14:57;10.63;;;6.57;;
43578;SDS011;29174;44.640;10.896;2024-03-07T02:17:26;7.55;;;6.35;;
43578;SDS011;29174;44.640;10.896;2024-03-07T02:19:52;10.70;;;7.15;;
43578;SDS011;29174;44.640;10.896;2024-03-07T02:22:18;14.80;;;8.65;;
43578;SDS011;29174;44.640;10.896;2024-03-07T02:24:44;11.73;;;8.97;;
43578;SDS011;29174;44.640;10.896;2024-03-07T02:27:11;11.30;;;8.48;;
43578;SDS011;29174;44.640;10.896;2024-03-07T02:29:37;11.93;;;8.67;;
43578;SDS011;29174;44.640;10.896;2024-03-07T02:32:03;12.80;;;9.27;;
43578;SDS011;29174;44.640;10.896;2024-03-07T02:34:29;11.30;;;8.48;;
43578;SDS011;29174;44.640;10.896;2024-03-07T02:36:55;11.88;;;8.15;;
43578;SDS011;29174;44.640;10.896;2024-03-07T02:39:20;9.23;;;7.90;;
43578;SDS011;29174;44.640;10.896;2024-03-07T02:41:46;12.02;;;7.28;;
43578;SDS011;29174;44.640;10.896;2024-03-07T02:44:15;9.95;;;7.40;;
43578;SDS011;29174;44.640;10.896;2024-03-07T02:46:41;9.88;;;7.18;;
43578;SDS011;29174;44.640;10.896;2024-03-07T02:49:07;9.02;;;6.85;;
43578;SDS011;29174;44.640;10.896;2024-03-07T02:51:32;8.27;;;6.38;;
43578;SDS011;29174;44.640;10.896;2024-03-07T02:53:58;10.35;;;6.88;;
43578;SDS011;29174;44.640;10.896;2024-03-07T02:56:24;11.35;;;6.30;;
43578;SDS011;29174;44.640;10.896;2024-03-07T02:58:50;10.75;;;6.18;;
43578;SDS011;29174;44.640;10.896;2024-03-07T03:01:18;12.38;;;6.18;;
43578;SDS011;29174;44.640;10.896;2024-03-07T03:03:44;8.25;;;5.97;;
43578;SDS011;29174;44.640;10.896;2024-03-07T03:06:10;8.32;;;5.53;;
43578;SDS011;29174;44.640;10.896;2024-03-07T03:08:36;9.02;;;5.57;;
43578;SDS011;29174;44.640;10.896;2024-03-07T03:11:02;8.45;;;4.97;;
43578;SDS011;29174;44.640;10.896;2024-03-07T03:13:28;9.82;;;5.28;;
43578;SDS011;29174;44.640;10.896;2024-03-07T03:15:55;10.57;;;5.50;;
43578;SDS011;29174;44.640;10.896;2024-03-07T03:18:23;8.68;;;5.10;;
43578;SDS011;29174;44.640;10.896;2024-03-07T03:20:49;5.80;;;4.57;;
43578;SDS011;29174;44.640;10.896;2024-03-07T03:23:15;6.10;;;5.07;;
43578;SDS011;29174;44.640;10.896;2024-03-07T03:25:41;6.68;;;5.03;;
43578;SDS011;29174;44.640;10.896;2024-03-07T03:28:08;7.70;;;5.07;;
43578;SDS011;29174;44.640;10.896;2024-03-07T03:30:37;7.05;;;5.13;;
43578;SDS011;29174;44.640;10.896;2024-03-07T03:33:06;8.88;;;5.10;;
43578;SDS011;29174;44.640;10.896;2024-03-07T03:35:33;7.38;;;5.30;;
43578;SDS011;29174;44.640;10.896;2024-03-07T03:37:59;10.63;;;5.15;;
43578;SDS011;29174;44.640;10.896;2024-03-07T03:40:25;7.80;;;5.60;;
43578;SDS011;29174;44.640;10.896;2024-03-07T03:42:50;6.00;;;4.82;;
43578;SDS011;29174;44.640;10.896;2024-03-07T03:45:17;9.07;;;5.10;;
43578;SDS011;29174;44.640;10.896;2024-03-07T03:47:43;7.05;;;4.85;;
43578;SDS011;29174;44.640;10.896;2024-03-07T03:50:10;9.70;;;5.20;;
43578;SDS011;29174;44.640;10.896;2024-03-07T03:52:37;7.00;;;4.43;;
43578;SDS011;29174;44.640;10.896;2024-03-07T03:55:03;7.07;;;4.80;;
43578;SDS011;29174;44.640;10.896;2024-03-07T03:57:32;5.97;;;4.65;;
43578;SDS011;29174;44.640;10.896;2024-03-07T03:59:58;8.18;;;5.30;;
43578;SDS011;29174;44.640;10.896;2024-03-07T04:02:25;7.53;;;5.10;;
43578;SDS011;29174;44.640;10.896;2024-03-07T04:04:51;7.78;;;5.55;;
43578;SDS011;29174;44.640;10.896;2024-03-07T04:07:18;8.98;;;5.22;;
43578;SDS011;29174;44.640;10.896;2024-03-07T04:09:44;8.57;;;6.03;;
43578;SDS011;29174;44.640;10.896;2024-03-07T04:12:11;8.60;;;5.53;;
43578;SDS011;29174;44.640;10.896;2024-03-07T04:14:39;8.63;;;5.03;;
43578;SDS011;29174;44.640;10.896;2024-03-07T04:17:06;7.60;;;5.53;;
43578;SDS011;29174;44.640;10.896;2024-03-07T04:19:35;9.65;;;5.15;;
43578;SDS011;29174;44.640;10.896;2024-03-07T04:22:01;10.82;;;5.05;;
43578;SDS011;29174;44.640;10.896;2024-03-07T04:26:58;7.20;;;5.03;;
43578;SDS011;29174;44.640;10.896;2024-03-07T04:29:25;8.95;;;5.32;;
43578;SDS011;29174;44.640;10.896;2024-03-07T04:31:51;11.52;;;5.95;;
43578;SDS011;29174;44.640;10.896;2024-03-07T04:34:17;8.75;;;6.20;;
43578;SDS011;29174;44.640;10.896;2024-03-07T04:36:42;8.05;;;5.85;;
43578;SDS011;29174;44.640;10.896;2024-03-07T04:39:08;9.82;;;6.25;;
43578;SDS011;29174;44.640;10.896;2024-03-07T04:41:47;10.07;;;6.72;;
43578;SDS011;29174;44.640;10.896;2024-03-07T04:44:13;10.07;;;6.95;;
43578;SDS011;29174;44.640;10.896;2024-03-07T04:46:39;12.75;;;6.97;;
43578;SDS011;29174;44.640;10.896;2024-03-07T04:49:07;12.52;;;8.18;;
43578;SDS011;29174;44.640;10.896;2024-03-07T04:51:34;14.68;;;8.55;;
43578;SDS011;29174;44.640;10.896;2024-03-07T04:53:59;14.63;;;9.30;;
43578;SDS011;29174;44.640;10.896;2024-03-07T04:56:27;15.45;;;9.48;;
43578;SDS011;29174;44.640;10.896;2024-03-07T04:58:55;13.35;;;8.85;;
43578;SDS011;29174;44.640;10.896;2024-03-07T05:01:21;14.40;;;9.38;;
43578;SDS011;29174;44.640;10.896;2024-03-07T05:03:48;12.27;;;9.73;;
43578;SDS011;29174;44.640;10.896;2024-03-07T05:08:41;14.57;;;10.05;;
43578;SDS011;29174;44.640;10.896;2024-03-07T05:11:08;13.13;;;10.00;;
43578;SDS011;29174;44.640;10.896;2024-03-07T05:13:33;17.10;;;11.85;;
43578;SDS011;29174;44.640;10.896;2024-03-07T05:15:59;17.92;;;10.15;;
43578;SDS011;29174;44.640;10.896;2024-03-07T05:18:26;24.00;;;12.30;;
43578;SDS011;29174;44.640;10.896;2024-03-07T05:20:51;16.08;;;10.93;;
43578;SDS011;29174;44.640;10.896;2024-03-07T05:23:19;20.48;;;14.98;;
43578;SDS011;29174;44.640;10.896;2024-03-07T05:25:44;25.52;;;15.95;;
43578;SDS011;29174;44.640;10.896;2024-03-07T05:28:11;22.40;;;14.90;;
43578;SDS011;29174;44.640;10.896;2024-03-07T05:30:36;20.27;;;13.38;;
43578;SDS011;29174;44.640;10.896;2024-03-07T05:33:02;20.40;;;14.40;;
43578;SDS011;29174;44.640;10.896;2024-03-07T05:35:29;18.67;;;14.43;;
43578;SDS011;29174;44.640;10.896;2024-03-07T05:37:55;21.30;;;15.43;;
43578;SDS011;29174;44.640;10.896;2024-03-07T05:40:21;20.77;;;14.05;;
43578;SDS011;29174;44.640;10.896;2024-03-07T05:42:47;18.70;;;13.27;;
43578;SDS011;29174;44.640;10.896;2024-03-07T05:45:13;18.98;;;13.98;;
43578;SDS011;29174;44.640;10.896;2024-03-07T05:47:42;19.25;;;13.85;;
43578;SDS011;29174;44.640;10.896;2024-03-07T05:50:08;20.67;;;13.98;;
43578;SDS011;29174;44.640;10.896;2024-03-07T05:52:34;24.05;;;15.52;;
43578;SDS011;29174;44.640;10.896;2024-03-07T05:55:00;20.60;;;13.70;;
43578;SDS011;29174;44.640;10.896;2024-03-07T05:57:25;19.50;;;14.70;;
43578;SDS011;29174;44.640;10.896;2024-03-07T05:59:51;17.02;;;13.45;;
43578;SDS011;29174;44.640;10.896;2024-03-07T06:02:17;20.65;;;16.33;;
43578;SDS011;29174;44.640;10.896;2024-03-07T06:04:44;22.40;;;15.00;;
43578;SDS011;29174;44.640;10.896;2024-03-07T06:07:10;21.58;;;15.45;;
43578;SDS011;29174;44.640;10.896;2024-03-07T06:09:36;19.77;;;14.32;;
43578;SDS011;29174;44.640;10.896;2024-03-07T06:12:02;19.65;;;14.20;;
43578;SDS011;29174;44.640;10.896;2024-03-07T06:14:29;21.65;;;16.02;;
43578;SDS011;29174;44.640;10.896;2024-03-07T06:16:55;22.75;;;15.95;;
43578;SDS011;29174;44.640;10.896;2024-03-07T06:19:23;20.95;;;14.80;;
43578;SDS011;29174;44.640;10.896;2024-03-07T06:21:49;26.40;;;13.77;;
43578;SDS011;29174;44.640;10.896;2024-03-07T06:24:15;22.75;;;15.35;;
43578;SDS011;29174;44.640;10.896;2024-03-07T06:26:43;22.27;;;15.25;;
43578;SDS011;29174;44.640;10.896;2024-03-07T06:29:09;22.85;;;15.25;;
43578;SDS011;29174;44.640;10.896;2024-03-07T06:31:36;25.70;;;16.75;;
43578;SDS011;29174;44.640;10.896;2024-03-07T06:34:02;22.48;;;14.32;;
43578;SDS011;29174;44.640;10.896;2024-03-07T06:36:28;18.50;;;14.02;;
43578;SDS011;29174;44.640;10.896;2024-03-07T06:38:54;17.40;;;12.77;;
43578;SDS011;29174;44.640;10.896;2024-03-07T06:41:20;20.63;;;13.65;;
43578;SDS011;29174;44.640;10.896;2024-03-07T06:43:46;25.25;;;15.32;;
43578;SDS011;29174;44.640;10.896;2024-03-07T06:46:12;23.02;;;14.05;;
43578;SDS011;29174;44.640;10.896;2024-03-07T06:48:38;20.25;;;13.50;;
43578;SDS011;29174;44.640;10.896;2024-03-07T06:51:05;22.73;;;12.95;;
43578;SDS011;29174;44.640;10.896;2024-03-07T06:53:32;18.88;;;12.35;;
43578;SDS011;29174;44.640;10.896;2024-03-07T06:55:58;18.63;;;11.30;;
43578;SDS011;29174;44.640;10.896;2024-03-07T06:58:24;14.90;;;10.38;;
43578;SDS011;29174;44.640;10.896;2024-03-07T07:00:51;20.17;;;11.15;;
43578;SDS011;29174;44.640;10.896;2024-03-07T07:03:19;20.70;;;9.27;;
43578;SDS011;29174;44.640;10.896;2024-03-07T07:05:45;17.25;;;7.75;;
43578;SDS011;29174;44.640;10.896;2024-03-07T07:11:18;14.27;;;9.57;;
43578;SDS011;29174;44.640;10.896;2024-03-07T07:13:44;13.98;;;8.50;;
43578;SDS011;29174;44.640;10.896;2024-03-07T07:16:11;12.55;;;8.77;;
43578;SDS011;29174;44.640;10.896;2024-03-07T07:18:37;12.70;;;8.90;;
43578;SDS011;29174;44.640;10.896;2024-03-07T07:21:03;18.88;;;8.90;;
43578;SDS011;29174;44.640;10.896;2024-03-07T07:23:29;17.15;;;9.45;;
43578;SDS011;29174;44.640;10.896;2024-03-07T07:25:55;13.07;;;8.93;;
43578;SDS011;29174;44.640;10.896;2024-03-07T07:28:21;41.17;;;11.00;;
43578;SDS011;29174;44.640;10.896;2024-03-07T07:36:09;11.77;;;8.50;;
43578;SDS011;29174;44.640;10.896;2024-03-07T07:38:38;14.07;;;7.90;;
43578;SDS011;29174;44.640;10.896;2024-03-07T07:41:03;15.98;;;8.98;;
43578;SDS011;29174;44.640;10.896;2024-03-07T07:43:30;12.45;;;7.68;;
43578;SDS011;29174;44.640;10.896;2024-03-07T07:45:56;12.57;;;8.50;;
43578;SDS011;29174;44.640;10.896;2024-03-07T07:48:22;10.75;;;7.68;;
43578;SDS011;29174;44.640;10.896;2024-03-07T07:50:48;15.43;;;9.63;;
43578;SDS011;29174;44.640;10.896;2024-03-07T07:53:16;12.43;;;8.40;;
43578;SDS011;29174;44.640;10.896;2024-03-07T07:55:41;15.32;;;7.88;;
43578;SDS011;29174;44.640;10.896;2024-03-07T07:58:07;34.63;;;10.65;;
43578;SDS011;29174;44.640;10.896;2024-03-07T08:00:33;16.92;;;9.02;;
43578;SDS011;29174;44.640;10.896;2024-03-07T08:05:27;16.75;;;7.68;;
43578;SDS011;29174;44.640;10.896;2024-03-07T08:07:58;11.77;;;7.38;;
43578;SDS011;29174;44.640;10.896;2024-03-07T08:10:25;12.90;;;8.10;;
43578;SDS011;29174;44.640;10.896;2024-03-07T08:12:55;12.48;;;7.25;;
43578;SDS011;29174;44.640;10.896;2024-03-07T08:15:25;9.75;;;6.10;;
43578;SDS011;29174;44.640;10.896;2024-03-07T08:17:53;36.42;;;9.32;;
43578;SDS011;29174;44.640;10.896;2024-03-07T08:20:20;12.57;;;7.00;;
43578;SDS011;29174;44.640;10.896;2024-03-07T08:25:16;10.15;;;6.57;;
43578;SDS011;29174;44.640;10.896;2024-03-07T08:27:44;9.82;;;5.50;;
43578;SDS011;29174;44.640;10.896;2024-03-07T08:30:13;10.82;;;6.57;;
43578;SDS011;29174;44.640;10.896;2024-03-07T08:32:40;8.88;;;6.40;;
43578;SDS011;29174;44.640;10.896;2024-03-07T08:35:10;12.57;;;7.07;;
43578;SDS011;29174;44.640;10.896;2024-03-07T08:37:37;10.43;;;7.70;;
43578;SDS011;29174;44.640;10.896;2024-03-07T08:40:18;12.77;;;7.50;;
43578;SDS011;29174;44.640;10.896;2024-03-07T08:42:49;7.50;;;4.68;;
43578;SDS011;29174;44.640;10.896;2024-03-07T08:45:17;9.20;;;4.13;;
43578;SDS011;29174;44.640;10.896;2024-03-07T08:47:47;7.57;;;3.90;;
43578;SDS011;29174;44.640;10.896;2024-03-07T08:50:14;9.95;;;4.22;;
43578;SDS011;29174;44.640;10.896;2024-03-07T08:52:42;10.23;;;4.55;;
43578;SDS011;29174;44.640;10.896;2024-03-07T08:55:11;7.72;;;5.72;;
43578;SDS011;29174;44.640;10.896;2024-03-07T08:57:39;7.25;;;4.45;;
43578;SDS011;29174;44.640;10.896;2024-03-07T09:00:06;9.25;;;4.05;;
43578;SDS011;29174;44.640;10.896;2024-03-07T09:02:52;47.38;;;26.50;;
43578;SDS011;29174;44.640;10.896;2024-03-07T09:05:25;7.27;;;4.73;;
43578;SDS011;29174;44.640;10.896;2024-03-07T09:07:52;8.23;;;3.72;;
43578;SDS011;29174;44.640;10.896;2024-03-07T09:10:18;6.95;;;3.70;;
43578;SDS011;29174;44.640;10.896;2024-03-07T09:12:45;6.53;;;3.00;;
43578;SDS011;29174;44.640;10.896;2024-03-07T09:15:13;6.03;;;3.30;;
43578;SDS011;29174;44.640;10.896;2024-03-07T09:17:41;3.20;;;2.13;;
43578;SDS011;29174;44.640;10.896;2024-03-07T09:20:07;4.57;;;2.40;;
43578;SDS011;29174;44.640;10.896;2024-03-07T09:22:42;5.18;;;2.70;;
43578;SDS011;29174;44.640;10.896;2024-03-07T09:25:09;4.72;;;1.80;;
43578;SDS011;29174;44.640;10.896;2024-03-07T09:27:38;5.97;;;2.85;;
43578;SDS011;29174;44.640;10.896;2024-03-07T09:30:10;2.78;;;1.90;;
43578;SDS011;29174;44.640;10.896;2024-03-07T09:32:43;5.68;;;3.17;;
43578;SDS011;29174;44.640;10.896;2024-03-07T09:35:10;4.63;;;2.45;;
43578;SDS011;29174;44.640;10.896;2024-03-07T09:37:42;4.55;;;2.75;;
43578;SDS011;29174;44.640;10.896;2024-03-07T09:40:09;5.25;;;2.25;;
43578;SDS011;29174;44.640;10.896;2024-03-07T09:42:37;4.53;;;2.00;;
43578;SDS011;29174;44.640;10.896;2024-03-07T09:45:15;3.53;;;1.88;;
43578;SDS011;29174;44.640;10.896;2024-03-07T09:47:42;8.98;;;2.03;;
43578;SDS011;29174;44.640;10.896;2024-03-07T09:50:09;5.78;;;2.20;;
43578;SDS011;29174;44.640;10.896;2024-03-07T09:52:35;4.05;;;1.83;;
43578;SDS011;29174;44.640;10.896;2024-03-07T09:55:01;3.92;;;2.35;;
43578;SDS011;29174;44.640;10.896;2024-03-07T09:57:27;3.28;;;1.90;;
43578;SDS011;29174;44.640;10.896;2024-03-07T09:59:58;5.68;;;2.90;;
43578;SDS011;29174;44.640;10.896;2024-03-07T10:02:25;4.35;;;1.50;;
43578;SDS011;29174;44.640;10.896;2024-03-07T10:04:53;3.97;;;2.03;;
43578;SDS011;29174;44.640;10.896;2024-03-07T10:07:19;5.20;;;1.92;;
43578;SDS011;29174;44.640;10.896;2024-03-07T10:09:46;3.22;;;1.48;;
43578;SDS011;29174;44.640;10.896;2024-03-07T10:12:15;3.75;;;1.63;;
43578;SDS011;29174;44.640;10.896;2024-03-07T10:14:50;3.83;;;2.10;;
43578;SDS011;29174;44.640;10.896;2024-03-07T10:17:24;3.47;;;1.52;;
43578;SDS011;29174;44.640;10.896;2024-03-07T10:19:52;9.05;;;2.45;;
43578;SDS011;29174;44.640;10.896;2024-03-07T10:22:19;4.50;;;1.60;;
43578;SDS011;29174;44.640;10.896;2024-03-07T10:24:51;3.60;;;1.58;;
43578;SDS011;29174;44.640;10.896;2024-03-07T10:27:19;2.30;;;1.35;;
43578;SDS011;29174;44.640;10.896;2024-03-07T10:29:46;6.80;;;1.80;;
43578;SDS011;29174;44.640;10.896;2024-03-07T10:32:13;3.70;;;1.65;;
43578;SDS011;29174;44.640;10.896;2024-03-07T10:34:38;4.38;;;1.90;;
43578;SDS011;29174;44.640;10.896;2024-03-07T10:37:04;17.95;;;4.05;;
43578;SDS011;29174;44.640;10.896;2024-03-07T10:39:34;17.40;;;3.47;;
43578;SDS011;29174;44.640;10.896;2024-03-07T10:42:00;5.93;;;2.13;;
43578;SDS011;29174;44.640;10.896;2024-03-07T10:44:30;6.43;;;2.58;;
43578;SDS011;29174;44.640;10.896;2024-03-07T10:49:26;7.65;;;2.30;;
43578;SDS011;29174;44.640;10.896;2024-03-07T10:59:53;4.80;;;2.22;;
43578;SDS011;29174;44.640;10.896;2024-03-07T11:04:52;5.22;;;2.50;;
43578;SDS011;29174;44.640;10.896;2024-03-07T11:07:20;5.38;;;2.30;;
43578;SDS011;29174;44.640;10.896;2024-03-07T11:09:48;6.47;;;2.67;;
43578;SDS011;29174;44.640;10.896;2024-03-07T11:12:17;5.20;;;2.55;;
43578;SDS011;29174;44.640;10.896;2024-03-07T11:14:46;5.07;;;2.42;;
43578;SDS011;29174;44.640;10.896;2024-03-07T11:17:13;5.88;;;2.63;;
43578;SDS011;29174;44.640;10.896;2024-03-07T11:19:41;4.15;;;2.60;;
43578;SDS011;29174;44.640;10.896;2024-03-07T11:22:07;4.03;;;2.53;;
43578;SDS011;29174;44.640;10.896;2024-03-07T11:24:42;5.93;;;2.22;;
43578;SDS011;29174;44.640;10.896;2024-03-07T11:27:11;7.13;;;2.37;;
43578;SDS011;29174;44.640;10.896;2024-03-07T11:29:40;4.93;;;2.30;;
43578;SDS011;29174;44.640;10.896;2024-03-07T11:32:11;5.00;;;1.92;;
43578;SDS011;29174;44.640;10.896;2024-03-07T11:34:43;3.95;;;2.03;;
43578;SDS011;29174;44.640;10.896;2024-03-07T11:37:19;4.68;;;2.10;;
43578;SDS011;29174;44.640;10.896;2024-03-07T11:40:01;3.60;;;2.00;;
43578;SDS011;29174;44.640;10.896;2024-03-07T11:42:33;4.25;;;2.65;;
43578;SDS011;29174;44.640;10.896;2024-03-07T11:45:01;4.30;;;2.40;;
43578;SDS011;29174;44.640;10.896;2024-03-07T11:47:37;4.25;;;1.90;;
43578;SDS011;29174;44.640;10.896;2024-03-07T11:50:04;3.75;;;1.65;;
43578;SDS011;29174;44.640;10.896;2024-03-07T11:52:36;2.95;;;1.67;;
43578;SDS011;29174;44.640;10.896;2024-03-07T11:55:07;3.67;;;1.98;;
43578;SDS011;29174;44.640;10.896;2024-03-07T11:57:33;3.22;;;1.88;;
43578;SDS011;29174;44.640;10.896;2024-03-07T11:59:59;3.92;;;1.30;;
43578;SDS011;29174;44.640;10.896;2024-03-07T12:02:26;5.55;;;1.80;;
43578;SDS011;29174;44.640;10.896;2024-03-07T12:04:54;3.50;;;1.48;;
43578;SDS011;29174;44.640;10.896;2024-03-07T12:07:20;3.38;;;1.70;;
43578;SDS011;29174;44.640;10.896;2024-03-07T12:09:48;3.33;;;2.15;;
43578;SDS011;29174;44.640;10.896;2024-03-07T12:12:21;3.85;;;1.40;;
43578;SDS011;29174;44.640;10.896;2024-03-07T12:14:47;3.10;;;1.65;;
43578;SDS011;29174;44.640;10.896;2024-03-07T12:17:16;6.80;;;1.63;;
43578;SDS011;29174;44.640;10.896;2024-03-07T12:19:42;3.60;;;1.63;;
43578;SDS011;29174;44.640;10.896;2024-03-07T12:22:09;3.17;;;1.98;;
43578;SDS011;29174;44.640;10.896;2024-03-07T12:24:40;3.10;;;1.60;;
43578;SDS011;29174;44.640;10.896;2024-03-07T12:29:41;2.83;;;1.80;;
43578;SDS011;29174;44.640;10.896;2024-03-07T12:32:08;3.78;;;1.92;;
43578;SDS011;29174;44.640;10.896;2024-03-07T12:34:38;3.78;;;1.83;;
43578;SDS011;29174;44.640;10.896;2024-03-07T12:37:09;1.73;;;1.20;;
43578;SDS011;29174;44.640;10.896;2024-03-07T12:39:35;3.60;;;1.58;;
43578;SDS011;29174;44.640;10.896;2024-03-07T12:42:03;4.85;;;1.92;;
43578;SDS011;29174;44.640;10.896;2024-03-07T12:44:43;3.08;;;1.65;;
43578;SDS011;29174;44.640;10.896;2024-03-07T12:47:13;3.55;;;1.40;;
43578;SDS011;29174;44.640;10.896;2024-03-07T12:49:40;2.17;;;1.33;;
43578;SDS011;29174;44.640;10.896;2024-03-07T12:54:35;4.18;;;1.30;;
43578;SDS011;29174;44.640;10.896;2024-03-07T12:59:40;4.93;;;2.10;;
43578;SDS011;29174;44.640;10.896;2024-03-07T13:02:09;3.20;;;1.80;;
43578;SDS011;29174;44.640;10.896;2024-03-07T13:04:36;4.25;;;1.98;;
43578;SDS011;29174;44.640;10.896;2024-03-07T13:07:05;3.13;;;1.83;;
43578;SDS011;29174;44.640;10.896;2024-03-07T13:09:32;3.95;;;1.50;;
43578;SDS011;29174;44.640;10.896;2024-03-07T13:12:03;3.80;;;1.92;;
43578;SDS011;29174;44.640;10.896;2024-03-07T13:14:31;4.33;;;1.73;;
43578;SDS011;29174;44.640;10.896;2024-03-07T13:17:00;3.42;;;2.65;;
43578;SDS011;29174;44.640;10.896;2024-03-07T13:19:28;3.45;;;2.78;;
43578;SDS011;29174;44.640;10.896;2024-03-07T13:21:54;7.32;;;2.65;;
43578;SDS011;29174;44.640;10.896;2024-03-07T13:24:21;5.25;;;2.45;;
43578;SDS011;29174;44.640;10.896;2024-03-07T13:26:51;5.25;;;2.10;;
43578;SDS011;29174;44.640;10.896;2024-03-07T13:29:18;4.22;;;1.88;;
43578;SDS011;29174;44.640;10.896;2024-03-07T13:31:49;2.25;;;1.55;;
43578;SDS011;29174;44.640;10.896;2024-03-07T13:34:16;2.60;;;1.30;;
43578;SDS011;29174;44.640;10.896;2024-03-07T13:36:43;3.53;;;1.50;;
43578;SDS011;29174;44.640;10.896;2024-03-07T13:39:09;3.15;;;1.45;;
43578;SDS011;29174;44.640;10.896;2024-03-07T13:41:43;4.05;;;1.90;;
43578;SDS011;29174;44.640;10.896;2024-03-07T13:44:16;3.00;;;1.70;;
43578;SDS011;29174;44.640;10.896;2024-03-07T13:46:44;3.47;;;2.08;;
43578;SDS011;29174;44.640;10.896;2024-03-07T13:49:09;4.90;;;2.55;;
43578;SDS011;29174;44.640;10.896;2024-03-07T13:51:38;3.33;;;2.00;;
43578;SDS011;29174;44.640;10.896;2024-03-07T13:54:15;4.95;;;2.13;;
43578;SDS011;29174;44.640;10.896;2024-03-07T14:00:10;3.38;;;1.67;;
43578;SDS011;29174;44.640;10.896;2024-03-07T14:08:32;3.53;;;1.75;;
43578;SDS011;29174;44.640;10.896;2024-03-07T14:25:19;3.78;;;2.13;;
43578;SDS011;29174;44.640;10.896;2024-03-07T14:30:53;3.17;;;1.83;;
43578;SDS011;29174;44.640;10.896;2024-03-07T14:33:28;4.55;;;2.20;;
43578;SDS011;29174;44.640;10.896;2024-03-07T14:36:05;3.70;;;2.17;;
43578;SDS011;29174;44.640;10.896;2024-03-07T14:41:04;3.95;;;2.00;;
43578;SDS011;29174;44.640;10.896;2024-03-07T14:43:32;3.75;;;2.00;;
43578;SDS011;29174;44.640;10.896;2024-03-07T14:45:59;4.75;;;2.30;;
43578;SDS011;29174;44.640;10.896;2024-03-07T14:48:25;3.60;;;2.22;;
43578;SDS011;29174;44.640;10.896;2024-03-07T14:50:52;3.45;;;1.98;;
43578;SDS011;29174;44.640;10.896;2024-03-07T14:53:18;5.07;;;1.95;;
43578;SDS011;29174;44.640;10.896;2024-03-07T14:55:45;2.75;;;2.10;;
43578;SDS011;29174;44.640;10.896;2024-03-07T14:58:12;4.18;;;2.38;;
43578;SDS011;29174;44.640;10.896;2024-03-07T15:00:39;4.28;;;2.22;;
43578;SDS011;29174;44.640;10.896;2024-03-07T15:03:13;6.80;;;2.10;;
43578;SDS011;29174;44.640;10.896;2024-03-07T15:05:42;2.95;;;1.90;;
43578;SDS011;29174;44.640;10.896;2024-03-07T15:08:12;5.93;;;1.90;;
43578;SDS011;29174;44.640;10.896;2024-03-07T15:10:38;6.18;;;3.50;;
43578;SDS011;29174;44.640;10.896;2024-03-07T15:13:11;4.68;;;2.60;;
43578;SDS011;29174;44.640;10.896;2024-03-07T15:15:38;4.27;;;2.37;;
43578;SDS011;29174;44.640;10.896;2024-03-07T15:18:05;5.18;;;2.90;;
43578;SDS011;29174;44.640;10.896;2024-03-07T15:20:31;4.60;;;2.53;;
43578;SDS011;29174;44.640;10.896;2024-03-07T15:22:57;6.63;;;2.63;;
43578;SDS011;29174;44.640;10.896;2024-03-07T15:25:24;5.68;;;2.53;;
43578;SDS011;29174;44.640;10.896;2024-03-07T15:27:51;5.15;;;2.20;;
43578;SDS011;29174;44.640;10.896;2024-03-07T15:30:27;3.95;;;2.25;;
43578;SDS011;29174;44.640;10.896;2024-03-07T15:33:02;6.93;;;3.00;;
43578;SDS011;29174;44.640;10.896;2024-03-07T15:35:32;4.28;;;2.47;;
43578;SDS011;29174;44.640;10.896;2024-03-07T15:37:58;4.85;;;2.10;;
43578;SDS011;29174;44.640;10.896;2024-03-07T15:40:24;3.88;;;2.42;;